»·PEaware :: N665CW KTOA-KVNY

N665CW :: KTOA-KVNY

FLIGHT INFORMATION

Flight Status: Arrived
Operator: Privately registered:
United States
More flights under this callsign
Pilot: Mingdong C. (29599)
Aircraft: CIRRUS SR-22 TURBO
(S22T)
More flights by this aircraft type
Origin: KTOA Zamperini
United States
Destination: KVNY Van Nuys
United States
More flights between these airports :: More routes between these airports
Route: LAX170 LIMBO V64 SMO125 SMO SMO317 CANOG
File this flight plan on PilotEdge
Remarks: SCENARIO 1
Altitude:
(Current/Filed)
4,000ft
Speed:
(Current/Filed)
165kts
Departed: 06-Feb-21 07:43 PM
Arrived: 06-Feb-21 08:39 PM
Distance/Time
Traveled:
25nm/0:55
Distance/Time
To Go:
Arrived

Flight Plot

Page will automatically refresh every two minutes.

Flight plan parsing failed; only flown route is shown


Map Options




Map Legend


Flown Route
Filed Route
Departure Airport
Arrival Airport
Navaid (VOR, NDB)
Fix

Horizontal Profiles

Position Reports

Time Latitude Longitude Heading Altitude Ground
Speed
06-Feb-21 19:26 33.801075 -118.340641 218 105ft 0kts
06-Feb-21 19:27 33.801075 -118.340641 218 105ft 0kts
06-Feb-21 19:28 33.801075 -118.340641 218 105ft 0kts
06-Feb-21 19:29 33.800853 -118.340143 120 105ft 9kts
06-Feb-21 19:30 33.799616 -118.338021 128 106ft 8kts
06-Feb-21 19:31 33.799391 -118.337701 139 106ft 0kts
06-Feb-21 19:32 33.799391 -118.337701 139 106ft 0kts
06-Feb-21 19:33 33.799391 -118.337700 139 106ft 0kts
06-Feb-21 19:34 33.799391 -118.337700 139 106ft 0kts
06-Feb-21 19:35 33.799376 -118.337679 125 106ft 0kts
06-Feb-21 19:36 33.799376 -118.337679 125 106ft 0kts
06-Feb-21 19:37 33.799315 -118.337594 167 106ft 2kts
06-Feb-21 19:38 33.798362 -118.335043 127 105ft 15kts
06-Feb-21 19:39 33.798626 -118.333499 20 101ft 0kts
06-Feb-21 19:40 33.799074 -118.333313 37 100ft 0kts
06-Feb-21 19:41 33.799628 -118.333065 320 98ft 11kts
06-Feb-21 19:42 33.813805 -118.354010 310 854ft 114kts
06-Feb-21 19:43 33.837613 -118.388910 309 1105ft 133kts
06-Feb-21 19:44 33.856988 -118.426877 264 1634ft 151kts
06-Feb-21 19:45 33.820871 -118.443840 183 2432ft 154kts
06-Feb-21 19:47 33.777929 -118.446438 161 3222ft 154kts
06-Feb-21 19:48 33.768924 -118.399802 94 3990ft 156kts
06-Feb-21 19:49 33.767894 -118.343071 88 4002ft 175kts
06-Feb-21 19:50 33.769228 -118.283983 88 4000ft 177kts
06-Feb-21 19:51 33.770648 -118.225632 83 3997ft 172kts
06-Feb-21 19:52 33.803083 -118.228604 297 4001ft 167kts
06-Feb-21 19:53 33.833487 -118.272226 314 4001ft 175kts
06-Feb-21 19:54 33.868962 -118.312036 318 3999ft 173kts
06-Feb-21 19:55 33.905482 -118.350106 319 4000ft 174kts
06-Feb-21 19:56 33.942480 -118.387855 319 3983ft 175kts
06-Feb-21 19:57 33.979566 -118.425545 319 3971ft 173kts
06-Feb-21 19:58 34.016555 -118.462824 327 3967ft 173kts
06-Feb-21 19:58 34.052896 -118.483505 338 3973ft 173kts
06-Feb-21 20:00 34.104463 -118.510412 335 3972ft 173kts
06-Feb-21 20:01 34.148300 -118.534608 335 4080ft 167kts
06-Feb-21 20:01 34.180368 -118.556253 327 4716ft 154kts
06-Feb-21 20:03 34.228005 -118.580915 354 4978ft 172kts
06-Feb-21 20:03 34.268113 -118.585277 354 4973ft 175kts
06-Feb-21 20:04 34.316551 -118.590531 355 4972ft 175kts
06-Feb-21 20:06 34.373253 -118.596672 355 4972ft 175kts
06-Feb-21 20:06 34.413480 -118.601022 355 4972ft 175kts
06-Feb-21 20:07 34.461410 -118.606201 355 4967ft 166kts
06-Feb-21 20:08 34.505189 -118.603986 47 4959ft 160kts
06-Feb-21 20:10 34.507871 -118.546106 92 4970ft 145kts
06-Feb-21 20:10 34.497596 -118.511021 164 4965ft 143kts
06-Feb-21 20:11 34.459391 -118.514766 176 4957ft 129kts
06-Feb-21 20:12 34.422366 -118.510627 175 4756ft 142kts
06-Feb-21 20:13 34.381721 -118.506595 175 4595ft 150kts
06-Feb-21 20:14 34.336876 -118.502374 175 3642ft 169kts
06-Feb-21 20:15 34.292833 -118.498214 175 2617ft 151kts
06-Feb-21 20:16 34.252538 -118.494411 175 1697ft 138kts
06-Feb-21 20:17 34.215052 -118.490894 175 981ft 152kts
06-Feb-21 20:18 34.171720 -118.484716 164 1670ft 163kts
06-Feb-21 20:19 34.126098 -118.467737 162 1673ft 175kts
06-Feb-21 20:20 34.078116 -118.456770 175 1672ft 176kts
06-Feb-21 20:21 34.029321 -118.457415 205 1653ft 177kts
06-Feb-21 20:22 34.024636 -118.511694 279 1673ft 176kts
06-Feb-21 20:23 34.032135 -118.567600 279 2266ft 157kts
06-Feb-21 20:24 34.019903 -118.608980 217 3763ft 130kts
06-Feb-21 20:25 34.031897 -118.644469 321 4593ft 167kts
06-Feb-21 20:26 34.070258 -118.681136 321 4573ft 179kts
06-Feb-21 20:27 34.109497 -118.718643 321 4572ft 180kts
06-Feb-21 20:28 34.148822 -118.756229 321 4572ft 180kts
06-Feb-21 20:29 34.189974 -118.784059 20 4555ft 168kts
06-Feb-21 20:30 34.203297 -118.733808 93 4198ft 172kts
06-Feb-21 20:31 34.201694 -118.678547 90 3959ft 145kts
06-Feb-21 20:32 34.201118 -118.632428 90 3840ft 137kts
06-Feb-21 20:33 34.200584 -118.584533 90 3339ft 150kts
06-Feb-21 20:34 34.199999 -118.533496 89 2650ft 149kts
06-Feb-21 20:35 34.230865 -118.528071 340 2115ft 124kts
06-Feb-21 20:36 34.247117 -118.515123 115 1922ft 122kts
06-Feb-21 20:37 34.228233 -118.490558 175 1152ft 94kts
06-Feb-21 20:38 34.210403 -118.489154 147 804ft 9kts
06-Feb-21 20:39 34.210287 -118.488566 96 804ft 0kts
06-Feb-21 20:40 34.209297 -118.487705 7 804ft 2kts

Navigation Log

Ident Type
Flight plan parsing failed, navigation log unavailable